createdAt,value
2023-07-27T00:01:01.300Z,28.35
2023-07-27T00:03:29.019Z,28.27
2023-07-27T00:06:00.605Z,28.24
2023-07-27T00:08:28.504Z,28.16
2023-07-27T00:10:57.924Z,28.14
2023-07-27T00:13:25.543Z,28.13
2023-07-27T00:15:53.072Z,28.18
2023-07-27T00:18:23.630Z,28.10
2023-07-27T00:20:50.903Z,28.08
2023-07-27T00:23:18.160Z,28.00
2023-07-27T00:25:45.392Z,27.96
2023-07-27T00:28:15.541Z,28.07
2023-07-27T00:30:42.795Z,28.01
2023-07-27T00:33:12.044Z,28.05
2023-07-27T00:35:44.665Z,27.94
2023-07-27T00:38:11.876Z,27.90
2023-07-27T00:40:40.212Z,27.85
2023-07-27T00:43:08.831Z,27.76
2023-07-27T00:45:36.227Z,27.91
2023-07-27T00:48:05.825Z,27.78
2023-07-27T00:50:39.693Z,27.69
2023-07-27T00:53:14.315Z,27.64
2023-07-27T00:55:48.873Z,27.44
2023-07-27T00:58:16.437Z,27.53
2023-07-27T01:00:44.258Z,27.34
2023-07-27T01:03:14.263Z,27.27
2023-07-27T01:05:44.026Z,27.41
2023-07-27T01:08:14.547Z,27.33
2023-07-27T01:10:55.499Z,27.45
2023-07-27T01:13:48.246Z,27.34
2023-07-27T01:16:23.498Z,27.21
2023-07-27T01:19:03.289Z,27.21
2023-07-27T01:21:38.420Z,27.15
2023-07-27T01:24:24.621Z,27.25
2023-07-27T01:27:21.099Z,27.13
2023-07-27T01:30:04.053Z,27.11
2023-07-27T01:32:37.195Z,27.08
2023-07-27T01:35:10.951Z,26.88
2023-07-27T01:37:41.460Z,26.79
2023-07-27T01:40:12.245Z,26.87
2023-07-27T01:42:40.790Z,26.96
2023-07-27T01:45:12.371Z,26.88
2023-07-27T01:47:43.214Z,26.95
2023-07-27T01:50:13.171Z,26.93
2023-07-27T01:52:41.690Z,26.98
2023-07-27T01:55:09.912Z,26.80
2023-07-27T01:57:37.936Z,26.79
2023-07-27T02:00:07.184Z,26.96
2023-07-27T02:02:43.462Z,26.80
2023-07-27T02:05:12.529Z,26.71
2023-07-27T02:07:40.742Z,26.72
2023-07-27T02:10:11.808Z,26.78
2023-07-27T02:12:46.109Z,26.63
2023-07-27T02:15:19.099Z,26.60
2023-07-27T02:17:51.172Z,26.68
2023-07-27T02:20:21.194Z,26.74
2023-07-27T02:22:49.233Z,26.88
2023-07-27T02:25:16.659Z,26.64
2023-07-27T02:27:46.434Z,26.72
2023-07-27T02:30:15.027Z,26.50
2023-07-27T02:32:42.520Z,26.53
2023-07-27T02:35:10.694Z,26.80
2023-07-27T02:37:38.410Z,26.64
2023-07-27T02:40:06.701Z,26.58
2023-07-27T02:42:34.699Z,26.74
2023-07-27T02:45:01.950Z,26.69
2023-07-27T02:47:34.842Z,26.68
2023-07-27T02:50:02.115Z,26.71
2023-07-27T02:52:33.258Z,26.61
2023-07-27T02:55:04.609Z,26.65
2023-07-27T02:57:34.135Z,26.49
2023-07-27T03:00:01.961Z,26.69
2023-07-27T03:02:31.857Z,26.57
2023-07-27T03:05:04.917Z,26.67
2023-07-27T03:07:32.195Z,26.62
2023-07-27T03:09:59.858Z,26.70
2023-07-27T03:12:27.074Z,26.71
2023-07-27T03:14:54.463Z,26.77
2023-07-27T03:17:24.177Z,26.89
2023-07-27T03:19:51.488Z,26.89
2023-07-27T03:22:18.895Z,26.93
2023-07-27T03:24:46.986Z,27.08
2023-07-27T03:27:14.327Z,26.94
2023-07-27T03:29:42.221Z,26.96
2023-07-27T03:32:11.322Z,27.02
2023-07-27T03:34:39.116Z,26.92
2023-07-27T03:37:07.099Z,27.03
2023-07-27T03:39:34.389Z,27.09
2023-07-27T03:42:01.789Z,27.14
2023-07-27T03:44:30.165Z,27.18
2023-07-27T03:46:57.444Z,27.08
2023-07-27T03:49:24.706Z,27.01
2023-07-27T03:51:52.306Z,27.00
2023-07-27T03:54:20.764Z,27.00
2023-07-27T03:56:48.023Z,27.09
2023-07-27T03:59:15.242Z,27.30
2023-07-27T04:01:43.038Z,27.24
2023-07-27T04:04:10.375Z,27.18
2023-07-27T04:06:38.811Z,27.14
2023-07-27T04:09:06.172Z,27.30
2023-07-27T04:11:34.758Z,27.35
2023-07-27T04:14:03.785Z,27.28
2023-07-27T04:16:33.356Z,27.24
2023-07-27T04:19:00.856Z,27.35
2023-07-27T04:21:28.566Z,27.36
2023-07-27T04:23:55.945Z,27.38
2023-07-27T04:26:23.346Z,27.29
2023-07-27T04:28:50.788Z,27.51
2023-07-27T04:31:18.274Z,27.37
2023-07-27T04:33:45.651Z,27.37
2023-07-27T04:36:12.925Z,27.55
2023-07-27T04:38:40.077Z,27.61
2023-07-27T04:41:08.450Z,27.60
2023-07-27T04:43:35.834Z,27.71
2023-07-27T04:46:04.707Z,27.80
2023-07-27T04:48:32.752Z,27.70
2023-07-27T04:51:01.557Z,27.65
2023-07-27T04:53:28.704Z,27.71
2023-07-27T04:55:56.023Z,27.64
2023-07-27T04:58:23.997Z,27.76
2023-07-27T05:00:55.625Z,27.76
2023-07-27T05:03:23.059Z,27.71
2023-07-27T05:05:54.713Z,27.88
2023-07-27T05:08:23.326Z,27.80
2023-07-27T05:10:50.765Z,27.87
2023-07-27T05:13:19.421Z,27.94
2023-07-27T05:15:47.746Z,27.87
2023-07-27T05:18:16.001Z,27.94
2023-07-27T05:20:45.007Z,27.90
2023-07-27T05:23:12.379Z,28.04
2023-07-27T05:25:39.541Z,28.03
2023-07-27T05:28:06.745Z,28.18
2023-07-27T05:30:34.314Z,28.21
2023-07-27T05:33:02.357Z,28.11
2023-07-27T05:35:31.202Z,28.27
2023-07-27T05:37:58.373Z,28.28
2023-07-27T05:40:25.565Z,28.32
2023-07-27T05:42:52.791Z,28.42
2023-07-27T05:45:20.151Z,28.50
2023-07-27T05:47:47.402Z,28.57
2023-07-27T05:50:15.133Z,28.64
2023-07-27T05:52:42.554Z,28.67
2023-07-27T05:55:10.311Z,28.66
2023-07-27T05:57:37.739Z,28.74
2023-07-27T06:00:07.245Z,28.81
2023-07-27T06:02:35.747Z,28.85
2023-07-27T06:05:03.638Z,28.99
2023-07-27T06:07:31.087Z,29.02
2023-07-27T06:09:58.228Z,28.96
2023-07-27T06:12:25.806Z,29.00
2023-07-27T06:14:53.196Z,28.99
2023-07-27T06:17:20.677Z,29.13
2023-07-27T06:19:48.193Z,29.06
2023-07-27T06:22:15.413Z,29.21
2023-07-27T06:24:42.741Z,29.24
2023-07-27T06:27:10.190Z,29.16
2023-07-27T06:29:37.699Z,29.18
2023-07-27T06:32:05.563Z,29.22
2023-07-27T06:34:32.864Z,29.39
2023-07-27T06:37:00.089Z,29.32
2023-07-27T06:39:27.349Z,29.42
2023-07-27T06:41:55.429Z,29.39
2023-07-27T06:44:30.040Z,29.44
2023-07-27T06:46:57.405Z,29.49
2023-07-27T06:49:25.442Z,29.46
2023-07-27T06:51:52.553Z,29.48
2023-07-27T06:54:20.052Z,29.42
2023-07-27T06:56:47.810Z,29.53
2023-07-27T06:59:15.056Z,29.47
2023-07-27T07:01:44.396Z,29.47
2023-07-27T07:04:11.743Z,29.51
2023-07-27T07:06:38.993Z,29.63
2023-07-27T07:09:06.738Z,29.63
2023-07-27T07:11:34.248Z,29.60
2023-07-27T07:14:02.302Z,29.74
2023-07-27T07:16:29.787Z,29.73
2023-07-27T07:18:57.611Z,29.81
2023-07-27T07:21:24.928Z,29.69
2023-07-27T07:23:52.112Z,29.87
2023-07-27T07:26:19.555Z,29.93
2023-07-27T07:28:46.960Z,29.79
2023-07-27T07:31:14.912Z,29.88
2023-07-27T07:33:42.336Z,29.86
2023-07-27T07:36:09.443Z,29.95
2023-07-27T07:38:37.305Z,30.10
2023-07-27T07:41:05.995Z,30.05
2023-07-27T07:43:36.045Z,30.19
2023-07-27T07:46:03.329Z,30.24
2023-07-27T07:48:30.690Z,30.19
2023-07-27T07:50:58.139Z,30.27
2023-07-27T07:53:34.883Z,30.27
2023-07-27T07:56:04.013Z,30.28
2023-07-27T07:58:31.759Z,30.43
2023-07-27T08:00:59.101Z,30.47
2023-07-27T08:03:26.554Z,30.48
2023-07-27T08:05:53.895Z,30.72
2023-07-27T08:08:21.056Z,30.72
2023-07-27T08:10:48.889Z,30.74
2023-07-27T08:13:16.102Z,30.72
2023-07-27T08:15:56.206Z,30.87
2023-07-27T08:18:24.058Z,30.88
2023-07-27T08:21:04.645Z,30.91
2023-07-27T08:23:33.147Z,30.97
2023-07-27T08:26:08.990Z,31.14
2023-07-27T08:28:36.544Z,31.15
2023-07-27T08:31:07.078Z,31.20
2023-07-27T08:33:34.439Z,31.25
2023-07-27T08:36:02.801Z,31.29
2023-07-27T08:38:30.532Z,31.37
2023-07-27T08:40:59.287Z,31.41
2023-07-27T08:43:27.328Z,31.35
2023-07-27T08:45:56.020Z,31.51
2023-07-27T08:48:25.550Z,31.46
2023-07-27T08:50:54.821Z,31.58
2023-07-27T08:53:22.206Z,31.69
2023-07-27T08:55:49.438Z,31.66
2023-07-27T08:58:17.148Z,31.77
2023-07-27T09:00:44.958Z,31.70
2023-07-27T09:03:13.023Z,31.79
2023-07-27T09:05:43.344Z,31.93
2023-07-27T09:08:13.503Z,31.95
2023-07-27T09:10:44.436Z,32.00
2023-07-27T09:13:11.875Z,32.08
2023-07-27T09:15:44.216Z,32.06
2023-07-27T09:18:14.650Z,32.07
2023-07-27T09:20:42.601Z,32.04
2023-07-27T09:23:10.158Z,32.20
2023-07-27T09:25:41.555Z,32.18
2023-07-27T09:28:09.333Z,32.30
2023-07-27T09:30:45.078Z,32.36
2023-07-27T09:33:12.326Z,32.35
2023-07-27T09:35:40.038Z,32.54
2023-07-27T09:38:07.584Z,32.53
2023-07-27T09:40:35.330Z,32.57
2023-07-27T09:43:10.491Z,32.69
2023-07-27T09:45:39.777Z,32.72
2023-07-27T09:48:08.969Z,32.85
2023-07-27T09:50:37.588Z,32.92
2023-07-27T09:53:06.780Z,32.84
2023-07-27T09:55:34.591Z,32.87
2023-07-27T09:58:02.211Z,32.83
2023-07-27T10:00:31.383Z,32.99
2023-07-27T10:03:09.160Z,32.90
2023-07-27T10:05:42.281Z,32.91
2023-07-27T10:08:10.676Z,32.88
2023-07-27T10:10:43.684Z,32.94
2023-07-27T10:13:36.560Z,33.07
2023-07-27T10:16:04.272Z,33.15
2023-07-27T10:18:33.366Z,33.11
2023-07-27T10:21:35.414Z,33.28
2023-07-27T10:24:05.192Z,33.23
2023-07-27T10:26:54.051Z,33.43
2023-07-27T10:29:25.895Z,33.54
2023-07-27T10:32:15.580Z,33.56
2023-07-27T10:34:42.989Z,33.56
2023-07-27T10:37:12.242Z,33.66
2023-07-27T10:39:49.224Z,33.67
2023-07-27T10:42:24.025Z,33.59
2023-07-27T10:45:00.569Z,33.85
2023-07-27T10:47:33.447Z,33.81
2023-07-27T10:50:01.867Z,33.89
2023-07-27T10:52:41.096Z,33.94
2023-07-27T10:55:08.698Z,33.94
2023-07-27T10:57:37.063Z,33.90
2023-07-27T11:00:05.761Z,33.97
2023-07-27T11:02:34.819Z,33.89
2023-07-27T11:05:07.533Z,33.83
2023-07-27T11:07:44.307Z,33.85
2023-07-27T11:10:14.132Z,33.92
2023-07-27T11:12:53.976Z,34.07
2023-07-27T11:15:25.124Z,34.06
2023-07-27T11:17:55.317Z,34.14
2023-07-27T11:20:27.908Z,34.08
2023-07-27T11:22:58.783Z,34.14
2023-07-27T11:25:26.980Z,34.08
2023-07-27T11:27:55.193Z,34.15
2023-07-27T11:30:23.704Z,34.09
2023-07-27T11:33:04.690Z,34.37
2023-07-27T11:35:32.684Z,34.61
2023-07-27T11:38:01.130Z,34.70
2023-07-27T11:40:28.403Z,34.72
2023-07-27T11:42:57.435Z,34.70
2023-07-27T11:45:26.007Z,34.66
2023-07-27T11:47:54.431Z,34.67
2023-07-27T11:50:22.567Z,34.82
2023-07-27T11:52:52.402Z,35.02
2023-07-27T11:55:19.806Z,35.04
2023-07-27T11:57:53.251Z,35.04
2023-07-27T12:00:20.870Z,35.06
2023-07-27T12:02:50.054Z,35.02
2023-07-27T12:05:20.907Z,34.92
2023-07-27T12:10:30.570Z,35.06
2023-07-27T12:15:35.494Z,35.01
2023-07-27T12:18:04.794Z,34.94
2023-07-27T12:30:35.261Z,34.97
2023-07-27T12:33:02.688Z,35.05
2023-07-27T12:35:30.383Z,35.01
2023-07-27T12:38:47.519Z,34.94
2023-07-27T12:43:18.289Z,34.97
2023-07-27T12:45:45.881Z,35.04
2023-07-27T12:48:13.475Z,34.98
2023-07-27T12:50:42.537Z,35.11
2023-07-27T12:53:09.724Z,35.08
2023-07-27T12:55:37.987Z,35.08
2023-07-27T12:58:05.227Z,35.10
2023-07-27T13:00:32.573Z,35.11
2023-07-27T13:03:00.194Z,35.12
2023-07-27T13:05:27.611Z,35.09
2023-07-27T13:07:54.807Z,35.06
2023-07-27T13:10:22.166Z,35.16
2023-07-27T13:12:49.481Z,35.11
2023-07-27T13:15:18.443Z,35.16
2023-07-27T13:17:47.587Z,35.11
2023-07-27T13:20:15.208Z,35.15
2023-07-27T13:22:43.377Z,35.18
2023-07-27T13:25:10.748Z,35.15
2023-07-27T13:27:38.070Z,35.20
2023-07-27T13:30:06.254Z,35.18
2023-07-27T13:32:34.056Z,35.19
2023-07-27T13:35:02.171Z,35.26
2023-07-27T13:37:31.610Z,35.30
2023-07-27T13:39:58.815Z,35.30
2023-07-27T13:42:26.883Z,35.34
2023-07-27T13:44:54.365Z,35.36
2023-07-27T13:47:21.722Z,35.39
2023-07-27T13:49:49.149Z,35.54
2023-07-27T13:52:18.557Z,35.70
2023-07-27T13:54:45.797Z,35.72
2023-07-27T13:57:13.054Z,35.69
2023-07-27T13:59:40.364Z,35.71
2023-07-27T14:02:07.794Z,35.61
2023-07-27T14:04:35.028Z,35.52
2023-07-27T14:07:03.171Z,35.60
2023-07-27T14:09:30.893Z,35.49
2023-07-27T14:11:58.495Z,35.61
2023-07-27T14:14:25.972Z,35.61
2023-07-27T14:16:53.186Z,35.58
2023-07-27T14:19:20.470Z,35.54
2023-07-27T14:21:47.747Z,35.43
2023-07-27T14:24:14.882Z,35.45
2023-07-27T14:26:42.130Z,35.41
2023-07-27T14:29:09.730Z,35.44
2023-07-27T14:31:37.162Z,35.46
2023-07-27T14:34:04.928Z,35.39
2023-07-27T14:36:32.452Z,35.34
2023-07-27T14:41:29.947Z,35.38
2023-07-27T14:43:57.178Z,35.37
2023-07-27T14:46:24.492Z,35.26
2023-07-27T14:48:51.616Z,35.35
2023-07-27T14:51:19.081Z,35.33
2023-07-27T14:53:47.436Z,35.34
2023-07-27T14:56:17.981Z,35.33
2023-07-27T14:58:47.810Z,35.38
2023-07-27T15:01:15.524Z,35.41
2023-07-27T15:03:52.001Z,35.28
2023-07-27T15:06:20.820Z,35.37
2023-07-27T15:08:48.230Z,35.32
2023-07-27T15:13:45.991Z,35.34
2023-07-27T15:16:13.316Z,35.39
2023-07-27T15:18:41.170Z,35.34
2023-07-27T15:21:08.306Z,35.23
2023-07-27T15:23:35.602Z,35.15
2023-07-27T15:26:05.095Z,35.23
2023-07-27T15:28:34.979Z,35.20
2023-07-27T15:31:06.834Z,35.12
2023-07-27T15:33:35.525Z,35.15
2023-07-27T15:36:02.796Z,35.05
2023-07-27T15:38:30.005Z,34.99
2023-07-27T15:40:57.332Z,35.06
2023-07-27T15:43:24.859Z,35.10
2023-07-27T15:45:52.302Z,35.05
2023-07-27T15:48:22.279Z,34.98
2023-07-27T15:50:49.531Z,35.00
2023-07-27T15:53:17.192Z,34.97
2023-07-27T15:55:44.444Z,34.89
2023-07-27T15:58:12.623Z,34.85
2023-07-27T16:00:40.704Z,34.90
2023-07-27T16:03:08.406Z,34.77
2023-07-27T16:05:41.744Z,34.83
2023-07-27T16:08:09.073Z,34.77
2023-07-27T16:10:36.251Z,34.80
2023-07-27T16:13:03.888Z,34.75
2023-07-27T16:15:31.329Z,34.67
2023-07-27T16:17:58.757Z,34.65
2023-07-27T16:20:26.107Z,34.65
2023-07-27T16:22:53.916Z,34.59
2023-07-27T16:25:24.857Z,34.53
2023-07-27T16:27:55.232Z,34.40
2023-07-27T16:30:22.916Z,34.31
2023-07-27T16:32:50.798Z,34.31
2023-07-27T16:35:18.203Z,34.22
2023-07-27T16:37:46.491Z,34.11
2023-07-27T16:40:14.400Z,34.08
2023-07-27T16:42:41.665Z,33.85
2023-07-27T16:45:09.607Z,33.76
2023-07-27T16:47:36.833Z,33.90
2023-07-27T16:50:04.143Z,33.89
2023-07-27T16:52:31.290Z,33.76
2023-07-27T16:54:58.572Z,33.83
2023-07-27T16:57:26.149Z,33.69
2023-07-27T16:59:53.451Z,33.78
2023-07-27T17:02:21.013Z,33.56
2023-07-27T17:04:53.277Z,33.69
2023-07-27T17:07:20.929Z,33.55
2023-07-27T17:09:50.915Z,33.52
2023-07-27T17:12:18.685Z,33.43
2023-07-27T17:14:46.766Z,33.44
2023-07-27T17:17:14.001Z,33.49
2023-07-27T17:19:41.422Z,33.08
2023-07-27T17:22:08.867Z,33.35
2023-07-27T17:24:36.147Z,33.37
2023-07-27T17:27:03.650Z,33.31
2023-07-27T17:29:31.281Z,33.32
2023-07-27T17:31:59.351Z,33.33
2023-07-27T17:34:29.772Z,33.26
2023-07-27T17:36:59.167Z,33.33
2023-07-27T17:39:26.587Z,33.35
2023-07-27T17:41:54.503Z,33.26
2023-07-27T17:44:21.801Z,32.94
2023-07-27T17:46:48.940Z,33.23
2023-07-27T17:49:16.130Z,33.16
2023-07-27T17:51:43.378Z,33.15
2023-07-27T17:54:11.417Z,33.23
2023-07-27T17:56:38.604Z,33.20
2023-07-27T17:59:05.998Z,33.16
2023-07-27T18:01:34.186Z,33.12
2023-07-27T18:04:02.146Z,33.14
2023-07-27T18:06:29.587Z,33.05
2023-07-27T18:08:56.898Z,33.01
2023-07-27T18:11:24.047Z,33.10
2023-07-27T18:13:51.279Z,33.02
2023-07-27T18:16:18.676Z,33.06
2023-07-27T18:18:45.987Z,32.95
2023-07-27T18:21:16.861Z,32.94
2023-07-27T18:23:45.703Z,32.84
2023-07-27T18:26:20.806Z,32.92
2023-07-27T18:28:50.767Z,32.88
2023-07-27T18:31:21.561Z,32.79
2023-07-27T18:33:52.359Z,32.77
2023-07-27T18:36:25.035Z,32.83
2023-07-27T18:38:52.258Z,32.70
2023-07-27T18:41:21.081Z,32.73
2023-07-27T18:43:49.106Z,32.65
2023-07-27T18:46:23.690Z,32.75
2023-07-27T18:48:51.348Z,32.63
2023-07-27T18:51:20.416Z,32.70
2023-07-27T18:53:47.761Z,32.53
2023-07-27T18:56:15.089Z,32.49
2023-07-27T18:58:43.246Z,32.52
2023-07-27T19:01:10.540Z,32.53
2023-07-27T19:03:38.849Z,32.55
2023-07-27T19:06:07.621Z,32.54
2023-07-27T19:08:34.839Z,32.48
2023-07-27T19:11:05.717Z,32.50
2023-07-27T19:13:33.497Z,32.43
2023-07-27T19:16:02.515Z,32.26
2023-07-27T19:18:29.839Z,32.14
2023-07-27T19:20:57.965Z,32.15
2023-07-27T19:23:25.323Z,32.21
2023-07-27T19:25:53.673Z,32.10
2023-07-27T19:28:22.895Z,31.95
2023-07-27T19:30:50.574Z,31.98
2023-07-27T19:33:18.415Z,32.03
2023-07-27T19:35:52.928Z,32.03
2023-07-27T19:38:22.951Z,32.03
2023-07-27T19:40:50.618Z,31.91
2023-07-27T19:43:20.058Z,31.79
2023-07-27T19:45:51.854Z,31.85
2023-07-27T19:48:20.349Z,31.78
2023-07-27T19:50:52.508Z,32.01
2023-07-27T19:53:20.922Z,31.94
2023-07-27T19:56:00.520Z,31.83
2023-07-27T19:58:31.523Z,31.99
2023-07-27T20:01:01.073Z,31.94
2023-07-27T20:03:31.000Z,31.86
2023-07-27T20:06:01.784Z,31.92
2023-07-27T20:08:45.741Z,32.10
2023-07-27T20:11:16.591Z,31.97
2023-07-27T20:13:52.993Z,31.93
2023-07-27T20:16:20.452Z,31.75
2023-07-27T20:18:52.528Z,31.68
2023-07-27T20:21:19.941Z,31.79
2023-07-27T20:23:49.760Z,31.63
2023-07-27T20:26:16.956Z,31.51
2023-07-27T20:28:47.771Z,31.61
2023-07-27T20:31:15.600Z,31.56
2023-07-27T20:33:44.522Z,31.62
2023-07-27T20:36:13.072Z,31.55
2023-07-27T20:38:42.534Z,31.53
2023-07-27T20:41:13.014Z,31.50
2023-07-27T20:43:40.632Z,31.34
2023-07-27T20:46:08.013Z,31.36
2023-07-27T20:48:37.420Z,31.32
2023-07-27T20:51:06.121Z,31.34
2023-07-27T20:53:38.049Z,31.13
2023-07-27T20:56:12.552Z,31.12
2023-07-27T20:58:43.241Z,31.02
2023-07-27T21:01:11.579Z,31.07
2023-07-27T21:03:40.907Z,30.95
2023-07-27T21:06:11.539Z,30.85
2023-07-27T21:08:42.793Z,30.92
2023-07-27T21:11:13.484Z,30.85
2023-07-27T21:13:40.788Z,30.80
2023-07-27T21:16:12.555Z,30.81
2023-07-27T21:18:44.882Z,30.66
2023-07-27T21:21:17.975Z,30.83
2023-07-27T21:23:49.242Z,30.64
2023-07-27T21:26:20.556Z,30.75
2023-07-27T21:28:48.770Z,30.85
2023-07-27T21:31:19.091Z,30.70
2023-07-27T21:33:46.369Z,30.62
2023-07-27T21:36:15.722Z,30.66
2023-07-27T21:38:45.382Z,30.61
2023-07-27T21:41:16.458Z,30.62
2023-07-27T21:43:46.413Z,30.41
2023-07-27T21:46:16.566Z,30.51
2023-07-27T21:48:44.720Z,30.55
2023-07-27T21:51:14.559Z,30.42
2023-07-27T21:53:42.839Z,30.49
2023-07-27T21:56:11.135Z,30.43
2023-07-27T21:58:41.743Z,30.48
2023-07-27T22:01:15.042Z,30.39
2023-07-27T22:03:42.501Z,30.29
2023-07-27T22:06:15.411Z,30.26
2023-07-27T22:08:42.643Z,30.15
2023-07-27T22:11:13.029Z,30.05
2023-07-27T22:13:40.681Z,30.01
2023-07-27T22:16:10.774Z,30.08
2023-07-27T22:18:38.353Z,30.15
2023-07-27T22:21:12.081Z,30.06
2023-07-27T22:23:41.347Z,30.28
2023-07-27T22:26:09.370Z,30.08
2023-07-27T22:28:37.501Z,30.07
2023-07-27T22:31:10.499Z,29.88
2023-07-27T22:33:38.583Z,30.03
2023-07-27T22:36:09.383Z,29.97
2023-07-27T22:38:39.842Z,29.95
2023-07-27T22:41:08.231Z,29.95
2023-07-27T22:43:35.385Z,29.85
2023-07-27T22:46:03.994Z,29.91
2023-07-27T22:48:33.852Z,29.77
2023-07-27T22:51:02.323Z,29.76
2023-07-27T22:53:29.601Z,29.63
2023-07-27T22:56:01.734Z,29.67
2023-07-27T22:58:28.994Z,29.70
2023-07-27T23:00:57.248Z,29.68
2023-07-27T23:03:25.419Z,29.77
2023-07-27T23:05:53.399Z,29.71
2023-07-27T23:08:20.908Z,29.59
2023-07-27T23:10:55.804Z,29.53
2023-07-27T23:13:23.158Z,29.57
2023-07-27T23:15:56.784Z,29.65
2023-07-27T23:18:24.096Z,29.69
2023-07-27T23:20:58.056Z,29.64
2023-07-27T23:23:30.461Z,29.55
2023-07-27T23:25:57.774Z,29.65
2023-07-27T23:28:27.587Z,29.49
2023-07-27T23:31:01.183Z,29.49
2023-07-27T23:33:28.734Z,29.51
2023-07-27T23:35:57.734Z,29.50
2023-07-27T23:38:25.244Z,29.28
2023-07-27T23:40:53.526Z,29.52
2023-07-27T23:43:23.448Z,29.38
2023-07-27T23:45:50.804Z,29.41
2023-07-27T23:48:19.730Z,29.05
2023-07-27T23:50:47.062Z,28.95
2023-07-27T23:53:14.867Z,28.98
2023-07-27T23:55:42.377Z,29.31
2023-07-27T23:58:09.628Z,29.07
